PWSweather.com
Personal Weather Stations
Station Observations
NBW76
Silver Creek, North Bend, WA 98065

Silver CreekNorth Bend, WA 98065

Lat: 47.4993612, Lon: -121.7783245

Elevation: 443

Station Type: Davisd VP2 + Solar + UV + Webcam

Latest ConditionsUpdated 11:50:01 AM PST Sunday, Nov 19, 2017
Currently Today's Max Today's Min Today's Average
Temperature 50.2°F10.1°C 50.5°F10.3°C 37.7°F3.2°C 41.5°F5.3°C
Dew Point 36.4°F2.4°C 36.7°F2.6°C 33.9°F1.1°C 34.9°F1.6°C
Winds 2.3 mph NE3.7 kmh NE 8.1 mph ESE13.0 kmh ESE - 2.7 mph 4.3 kmh
Wind Gusts 3.5 mph5.6 kmh 16.1 mph25.9 kmh - -
Humidity 59% 87% 58% 78%
Pressure 29.82 in1009.8 mb 30.08 in1018.6 mb 29.82 in1009.8 mb -
Hour Temp Dew Point Humidity Winds Wind Gusts Pressure Precip Precip Rate Daily Precip Total
11:50 AM 50.2°F10.1°C 36.4°F2.4°C 59% 2.3 mph NE3.7 kmh NE 3.5 mph5.6 kmh 29.82 in1009.8 mb - 0.00 in0.0 mm 0.00 in0.0 mm
11:40 AM 50.5°F10.3°C 36.7°F2.6°C 59% Calm Calm 2.3 mph3.7 kmh 29.82 in1009.8 mb - 0.00 in0.0 mm 0.00 in0.0 mm
11:30 AM 50.1°F10.1°C 36.3°F2.4°C 59% 2.3 mph E3.7 kmh E 4.6 mph7.4 kmh 29.82 in1009.8 mb - 0.00 in0.0 mm 0.00 in0.0 mm
11:20 AM 49.6°F9.8°C 35.4°F1.9°C 58% 5.8 mph ESE9.3 kmh ESE 11.5 mph18.5 kmh 29.82 in1009.8 mb - 0.00 in0.0 mm 0.00 in0.0 mm
11:10 AM 48.6°F9.2°C 35.4°F1.9°C 60% 6.9 mph ESE11.1 kmh ESE 11.5 mph18.5 kmh 29.83 in1010.2 mb - 0.00 in0.0 mm 0.00 in0.0 mm
11:00 AM 48.4°F9.1°C 35.1°F1.7°C 60% 6.9 mph ESE11.1 kmh ESE 8.1 mph13.0 kmh 29.84 in1010.5 mb - 0.00 in0.0 mm 0.00 in0.0 mm
10:50 AM 48.2°F9.0°C 35.0°F1.7°C 60% 6.9 mph SE11.1 kmh SE 13.8 mph22.2 kmh 29.84 in1010.5 mb - 0.00 in0.0 mm 0.00 in0.0 mm
10:40 AM 47.6°F8.7°C 35.6°F2.0°C 63% 4.6 mph SE7.4 kmh SE 6.9 mph11.1 kmh 29.85 in1010.8 mb - 0.00 in0.0 mm 0.00 in0.0 mm
10:30 AM 47.0°F8.3°C 35.0°F1.7°C 63% 4.6 mph SE7.4 kmh SE 13.8 mph22.2 kmh 29.86 in1011.2 mb - 0.00 in0.0 mm 0.00 in0.0 mm
10:20 AM 46.5°F8.1°C 35.0°F1.7°C 64% 6.9 mph ESE11.1 kmh ESE 11.5 mph18.5 kmh 29.86 in1011.2 mb - 0.00 in0.0 mm 0.00 in0.0 mm
10:10 AM 46.2°F7.9°C 35.1°F1.7°C 65% 5.8 mph SE9.3 kmh SE 16.1 mph25.9 kmh 29.86 in1011.2 mb - 0.00 in0.0 mm 0.00 in0.0 mm
10:00 AM 46.1°F7.8°C 35.4°F1.9°C 66% 4.6 mph SE7.4 kmh SE 6.9 mph11.1 kmh 29.87 in1011.5 mb - 0.00 in0.0 mm 0.00 in0.0 mm
09:50 AM 45.8°F7.7°C 35.1°F1.7°C 66% 5.8 mph SE9.3 kmh SE 6.9 mph11.1 kmh 29.88 in1011.9 mb - 0.00 in0.0 mm 0.00 in0.0 mm
09:40 AM 45.6°F7.6°C 34.9°F1.6°C 66% 4.6 mph SE7.4 kmh SE 5.8 mph9.3 kmh 29.89 in1012.2 mb - 0.00 in0.0 mm 0.00 in0.0 mm
09:30 AM 45.2°F7.3°C 34.5°F1.4°C 66% 6.9 mph SE11.1 kmh SE 6.9 mph11.1 kmh 29.90 in1012.5 mb - 0.00 in0.0 mm 0.00 in0.0 mm
09:20 AM 44.8°F7.1°C 34.5°F1.4°C 67% 5.8 mph ESE9.3 kmh ESE 13.8 mph22.2 kmh 29.91 in1012.9 mb - 0.00 in0.0 mm 0.00 in0.0 mm
09:10 AM 44.4°F6.9°C 34.5°F1.4°C 68% 5.8 mph SE9.3 kmh SE 10.4 mph16.7 kmh 29.91 in1012.9 mb - 0.00 in0.0 mm 0.00 in0.0 mm
09:00 AM 44.1°F6.7°C 34.2°F1.2°C 68% 6.9 mph ESE11.1 kmh ESE 10.4 mph16.7 kmh 29.91 in1012.9 mb - 0.00 in0.0 mm 0.00 in0.0 mm
08:50 AM 43.5°F6.4°C 34.7°F1.5°C 71% 5.8 mph SE9.3 kmh SE 8.1 mph13.0 kmh 29.93 in1013.5 mb - 0.00 in0.0 mm 0.00 in0.0 mm
08:40 AM 42.9°F6.1°C 34.8°F1.6°C 73% 6.9 mph ESE11.1 kmh ESE 11.5 mph18.5 kmh 29.93 in1013.5 mb - 0.00 in0.0 mm 0.00 in0.0 mm
08:30 AM 42.7°F5.9°C 34.3°F1.3°C 72% 4.6 mph SE7.4 kmh SE 6.9 mph11.1 kmh 29.94 in1013.9 mb - 0.00 in0.0 mm 0.00 in0.0 mm
08:20 AM 42.5°F5.8°C 34.1°F1.2°C 72% 8.1 mph ESE13.0 kmh ESE 13.8 mph22.2 kmh 29.95 in1014.2 mb - 0.00 in0.0 mm 0.00 in0.0 mm
08:10 AM 42.2°F5.7°C 34.2°F1.2°C 73% 5.8 mph ESE9.3 kmh ESE 9.2 mph14.8 kmh 29.95 in1014.2 mb - 0.00 in0.0 mm 0.00 in0.0 mm
08:00 AM 42.1°F5.6°C 34.1°F1.2°C 73% 5.8 mph SE9.3 kmh SE 11.5 mph18.5 kmh 29.95 in1014.2 mb - 0.00 in0.0 mm 0.00 in0.0 mm
07:50 AM 42.3°F5.7°C 33.9°F1.1°C 72% 3.5 mph E5.6 kmh E 8.1 mph13.0 kmh 29.96 in1014.6 mb - 0.00 in0.0 mm 0.00 in0.0 mm
07:40 AM 42.0°F5.6°C 34.3°F1.3°C 74% 2.3 mph SSE3.7 kmh SSE 6.9 mph11.1 kmh 29.97 in1014.9 mb - 0.00 in0.0 mm 0.00 in0.0 mm
07:30 AM 41.5°F5.3°C 34.2°F1.2°C 75% 1.2 mph ESE1.9 kmh ESE 2.3 mph3.7 kmh 29.97 in1014.9 mb - 0.00 in0.0 mm 0.00 in0.0 mm
07:20 AM 41.0°F5.0°C 34.7°F1.5°C 78% 5.8 mph ESE9.3 kmh ESE 10.4 mph16.7 kmh 29.97 in1014.9 mb - 0.00 in0.0 mm 0.00 in0.0 mm
07:10 AM 39.2°F4.0°C 34.4°F1.3°C 83% 2.3 mph ESE3.7 kmh ESE 10.4 mph16.7 kmh 29.98 in1015.2 mb - 0.00 in0.0 mm 0.00 in0.0 mm
07:00 AM 39.4°F4.1°C 34.4°F1.3°C 82% 1.2 mph NNE1.9 kmh NNE 2.3 mph3.7 kmh 29.98 in1015.2 mb - 0.00 in0.0 mm 0.00 in0.0 mm
06:50 AM 40.1°F4.5°C 34.4°F1.3°C 80% 1.2 mph E1.9 kmh E 2.3 mph3.7 kmh 29.97 in1014.9 mb - 0.00 in0.0 mm 0.00 in0.0 mm
06:40 AM 40.3°F4.6°C 34.6°F1.4°C 80% 1.2 mph ESE1.9 kmh ESE 1.2 mph1.9 kmh 29.98 in1015.2 mb - 0.00 in0.0 mm 0.00 in0.0 mm
06:30 AM 38.3°F3.5°C 34.5°F1.4°C 86% 1.2 mph ESE1.9 kmh ESE 3.5 mph5.6 kmh 29.98 in1015.2 mb - 0.00 in0.0 mm 0.00 in0.0 mm
06:20 AM 38.6°F3.7°C 34.5°F1.4°C 85% Calm Calm -- 29.98 in1015.2 mb - 0.00 in0.0 mm 0.00 in0.0 mm
06:10 AM 39.0°F3.9°C 34.5°F1.4°C 84% 2.3 mph NE3.7 kmh NE 3.5 mph5.6 kmh 29.98 in1015.2 mb - 0.00 in0.0 mm 0.00 in0.0 mm
06:00 AM 38.8°F3.8°C 34.4°F1.3°C 84% Calm Calm 2.3 mph3.7 kmh 29.99 in1015.6 mb - 0.00 in0.0 mm 0.00 in0.0 mm
05:50 AM 38.8°F3.8°C 34.4°F1.3°C 84% 1.2 mph E1.9 kmh E 4.6 mph7.4 kmh 29.99 in1015.6 mb - 0.00 in0.0 mm 0.00 in0.0 mm
05:40 AM 39.0°F3.9°C 34.3°F1.3°C 83% Calm Calm 1.2 mph1.9 kmh 29.99 in1015.6 mb - 0.00 in0.0 mm 0.00 in0.0 mm
05:30 AM 38.7°F3.7°C 34.3°F1.3°C 84% 1.2 mph SE1.9 kmh SE 1.2 mph1.9 kmh 30.00 in1015.9 mb - 0.00 in0.0 mm 0.00 in0.0 mm
05:20 AM 39.0°F3.9°C 34.6°F1.4°C 84% 3.5 mph E5.6 kmh E 4.6 mph7.4 kmh 30.01 in1016.3 mb - 0.00 in0.0 mm 0.00 in0.0 mm
05:10 AM 38.9°F3.8°C 34.5°F1.4°C 84% 2.3 mph SSE3.7 kmh SSE 3.5 mph5.6 kmh 30.02 in1016.6 mb - 0.00 in0.0 mm 0.00 in0.0 mm
05:00 AM 38.8°F3.8°C 34.7°F1.5°C 85% 4.6 mph SE7.4 kmh SE 5.8 mph9.3 kmh 30.02 in1016.6 mb - 0.00 in0.0 mm 0.00 in0.0 mm
04:50 AM 38.4°F3.6°C 34.6°F1.4°C 86% 1.2 mph E1.9 kmh E 4.6 mph7.4 kmh 30.03 in1016.9 mb - 0.00 in0.0 mm 0.00 in0.0 mm
04:40 AM 38.0°F3.3°C 34.5°F1.4°C 87% 2.3 mph ENE3.7 kmh ENE 3.5 mph5.6 kmh 30.04 in1017.3 mb - 0.00 in0.0 mm 0.00 in0.0 mm
04:30 AM 37.9°F3.3°C 34.4°F1.3°C 87% Calm Calm 2.3 mph3.7 kmh 30.03 in1016.9 mb - 0.00 in0.0 mm 0.00 in0.0 mm
04:20 AM 37.9°F3.3°C 34.1°F1.2°C 86% 1.2 mph SE1.9 kmh SE 2.3 mph3.7 kmh 30.03 in1016.9 mb - 0.00 in0.0 mm 0.00 in0.0 mm
04:10 AM 38.2°F3.4°C 34.7°F1.5°C 87% 1.2 mph E1.9 kmh E 3.5 mph5.6 kmh 30.02 in1016.6 mb - 0.00 in0.0 mm 0.00 in0.0 mm
04:00 AM 37.7°F3.2°C 34.2°F1.2°C 87% Calm Calm 1.2 mph1.9 kmh 30.02 in1016.6 mb - 0.00 in0.0 mm 0.00 in0.0 mm
03:50 AM 37.7°F3.2°C 34.2°F1.2°C 87% Calm Calm -- 30.02 in1016.6 mb - 0.00 in0.0 mm 0.00 in0.0 mm
03:40 AM 37.9°F3.3°C 34.3°F1.3°C 87% Calm Calm -- 30.02 in1016.6 mb - 0.00 in0.0 mm 0.00 in0.0 mm
03:30 AM 38.2°F3.4°C 34.4°F1.3°C 86% 1.2 mph NNE1.9 kmh NNE 3.5 mph5.6 kmh 30.02 in1016.6 mb - 0.00 in0.0 mm 0.00 in0.0 mm
03:20 AM 38.8°F3.8°C 34.7°F1.5°C 85% Calm Calm 2.3 mph3.7 kmh 30.02 in1016.6 mb - 0.00 in0.0 mm 0.00 in0.0 mm
03:10 AM 38.6°F3.7°C 35.1°F1.7°C 87% Calm Calm 2.3 mph3.7 kmh 30.02 in1016.6 mb - 0.00 in0.0 mm 0.00 in0.0 mm
03:00 AM 38.1°F3.4°C 34.5°F1.4°C 87% 1.2 mph ENE1.9 kmh ENE 2.3 mph3.7 kmh 30.03 in1016.9 mb - 0.00 in0.0 mm 0.00 in0.0 mm
02:50 AM 38.3°F3.5°C 34.5°F1.4°C 86% Calm Calm -- 30.03 in1016.9 mb - 0.00 in0.0 mm 0.00 in0.0 mm
02:40 AM 39.2°F4.0°C 34.8°F1.6°C 84% 2.3 mph NE3.7 kmh NE 3.5 mph5.6 kmh 30.04 in1017.3 mb - 0.00 in0.0 mm 0.00 in0.0 mm
02:30 AM 40.3°F4.6°C 35.5°F1.9°C 83% Calm Calm 2.3 mph3.7 kmh 30.03 in1016.9 mb - 0.00 in0.0 mm 0.00 in0.0 mm
02:20 AM 40.0°F4.4°C 35.9°F2.2°C 85% 3.5 mph SE5.6 kmh SE 4.6 mph7.4 kmh 30.04 in1017.3 mb - 0.00 in0.0 mm 0.00 in0.0 mm
02:10 AM 39.2°F4.0°C 35.4°F1.9°C 86% Calm Calm 3.5 mph5.6 kmh 30.05 in1017.6 mb - 0.00 in0.0 mm 0.00 in0.0 mm
02:00 AM 39.1°F3.9°C 35.6°F2.0°C 87% 2.3 mph E3.7 kmh E 3.5 mph5.6 kmh 30.05 in1017.6 mb - 0.00 in0.0 mm 0.00 in0.0 mm
01:50 AM 39.2°F4.0°C 35.4°F1.9°C 86% Calm Calm 2.3 mph3.7 kmh 30.06 in1017.9 mb - 0.00 in0.0 mm 0.00 in0.0 mm
01:40 AM 39.5°F4.2°C 35.7°F2.1°C 86% Calm Calm -- 30.06 in1017.9 mb - 0.00 in0.0 mm 0.00 in0.0 mm
01:30 AM 38.9°F3.8°C 35.4°F1.9°C 87% Calm Calm 1.2 mph1.9 kmh 30.07 in1018.3 mb - 0.00 in0.0 mm 0.00 in0.0 mm
01:20 AM 39.1°F3.9°C 35.3°F1.8°C 86% Calm Calm -- 30.07 in1018.3 mb - 0.00 in0.0 mm 0.00 in0.0 mm
01:10 AM 39.3°F4.1°C 35.8°F2.1°C 87% 2.3 mph ESE3.7 kmh ESE 3.5 mph5.6 kmh 30.07 in1018.3 mb - 0.00 in0.0 mm 0.00 in0.0 mm
01:00 AM 39.6°F4.2°C 35.8°F2.1°C 86% 1.2 mph E1.9 kmh E 2.3 mph3.7 kmh 30.08 in1018.6 mb - 0.00 in0.0 mm 0.00 in0.0 mm
12:50 AM 39.5°F4.2°C 36.0°F2.2°C 87% 2.3 mph E3.7 kmh E 3.5 mph5.6 kmh 30.08 in1018.6 mb - 0.00 in0.0 mm 0.00 in0.0 mm
12:40 AM 39.6°F4.2°C 35.8°F2.1°C 86% 2.3 mph SE3.7 kmh SE 3.5 mph5.6 kmh 30.08 in1018.6 mb - 0.00 in0.0 mm 0.00 in0.0 mm
12:30 AM 39.8°F4.3°C 36.0°F2.2°C 86% Calm Calm -- 30.08 in1018.6 mb - 0.00 in0.0 mm 0.00 in0.0 mm
12:20 AM 40.1°F4.5°C 36.0°F2.2°C 85% 2.3 mph ENE3.7 kmh ENE 4.6 mph7.4 kmh 30.08 in1018.6 mb - 0.00 in0.0 mm 0.00 in0.0 mm
12:10 AM 40.4°F4.7°C 36.2°F2.3°C 85% Calm Calm -- 30.08 in1018.6 mb - 0.00 in0.0 mm 0.00 in0.0 mm
12:00 AM 40.6°F4.8°C 36.1°F2.3°C 84% 1.2 mph E1.9 kmh E 3.5 mph5.6 kmh 30.08 in1018.6 mb - 0.00 in0.0 mm 0.00 in0.0 mm